Time;durP1;ratioP1;P1;durP2;ratioP2;P2;SDS_P1;SDS_P2;PMS_P1;PMS_P2;Temp;Humidity;BMP_temperature;BMP_pressure;BME280_temperature;BME280_humidity;BME280_pressure;Samples;Min_cycle;Max_cycle;Signal;HPM_P1;HPM_P2
2022/11/02 00:00:33;;;;;;;;;;;8.90;99.90;;;;;;4444877;28;10000975;-72
2022/11/02 00:02:59;;;;;;;5.72;1.50;;;8.90;99.90;;;;;;5015392;28;20075;-72
2022/11/02 00:05:25;;;;;;;8.73;1.90;;;8.80;99.90;;;;;;5015325;28;20025;-72
2022/11/02 00:07:52;;;;;;;7.90;2.10;;;8.80;99.90;;;;;;5023641;28;20033;-72
2022/11/02 00:10:18;;;;;;;8.10;1.85;;;8.80;99.90;;;;;;5024022;28;20034;-72
2022/11/02 00:12:44;;;;;;;6.20;1.73;;;8.80;99.90;;;;;;5020333;28;20026;-72
2022/11/02 00:15:10;;;;;;;9.52;1.60;;;8.80;99.90;;;;;;5017203;28;20102;-72
2022/11/02 00:17:37;;;;;;;6.05;1.50;;;8.80;99.90;;;;;;5016194;28;20061;-72
2022/11/02 00:20:04;;;;;;;6.95;1.58;;;8.80;99.90;;;;;;5015864;28;20029;-72
2022/11/02 00:22:32;;;;;;;11.07;1.85;;;8.80;99.90;;;;;;5021609;28;20021;-72
2022/11/02 00:24:58;;;;;;;9.57;2.05;;;8.80;99.90;;;;;;5017537;28;20034;-72
2022/11/02 00:27:23;;;;;;;9.35;1.98;;;8.80;99.90;;;;;;5022718;28;20029;-72
2022/11/02 00:29:49;;;;;;;12.30;2.53;;;8.80;99.90;;;;;;5018713;28;20110;-72
2022/11/02 00:32:15;;;;;;;14.27;2.17;;;8.70;99.90;;;;;;5021101;28;20206;-71
2022/11/02 00:34:41;;;;;;;12.93;2.30;;;8.70;99.90;;;;;;5017842;28;20026;-71
2022/11/02 00:37:06;;;;;;;10.30;2.55;;;8.80;99.90;;;;;;5020281;28;20029;-71
2022/11/02 00:39:32;;;;;;;8.05;2.30;;;8.80;99.90;;;;;;5020331;28;20562;-71
2022/11/02 00:41:57;;;;;;;12.23;2.10;;;8.80;99.90;;;;;;5023356;28;20354;-72
2022/11/02 00:44:23;;;;;;;9.32;1.92;;;8.70;99.90;;;;;;5009275;28;20029;-71
2022/11/02 00:46:49;;;;;;;10.40;2.05;;;8.80;99.90;;;;;;5016294;28;20087;-72
2022/11/02 00:49:14;;;;;;;10.18;1.98;;;8.80;99.90;;;;;;5026225;28;20026;-72
2022/11/02 00:51:42;;;;;;;8.90;2.03;;;8.80;99.90;;;;;;5013340;28;20037;-72
2022/11/02 00:54:07;;;;;;;11.45;2.35;;;8.70;99.90;;;;;;5007702;28;20464;-72
2022/11/02 00:56:33;;;;;;;10.82;2.40;;;8.70;99.90;;;;;;5019779;28;20025;-72
2022/11/02 00:58:58;;;;;;;10.95;1.70;;;8.70;99.90;;;;;;5018578;28;20167;-71
2022/11/02 01:01:24;;;;;;;11.18;2.17;;;8.60;99.90;;;;;;5010629;28;20373;-72
2022/11/02 01:03:50;;;;;;;9.43;1.85;;;8.60;99.90;;;;;;5017040;28;20026;-72
2022/11/02 01:06:15;;;;;;;14.85;2.20;;;8.60;99.90;;;;;;5020498;28;20561;-72
2022/11/02 01:08:41;;;;;;;11.43;1.80;;;8.60;99.90;;;;;;5021150;28;20037;-72
2022/11/02 01:11:13;;;;;;;19.45;2.42;;;8.60;99.90;;;;;;5021607;28;20064;-72
2022/11/02 01:13:39;;;;;;;10.77;2.20;;;8.60;99.90;;;;;;5017036;28;20243;-72
2022/11/02 01:16:05;;;;;;;11.85;2.70;;;8.50;99.90;;;;;;5018052;28;20052;-71
2022/11/02 01:18:31;;;;;;;12.75;1.98;;;8.50;99.90;;;;;;5011811;28;20530;-72
2022/11/02 01:20:58;;;;;;;9.77;2.38;;;8.50;99.90;;;;;;5019480;28;20041;-71
2022/11/02 01:23:24;;;;;;;12.80;1.90;;;8.50;99.90;;;;;;5008396;28;20291;-72
2022/11/02 01:25:50;;;;;;;11.68;2.13;;;8.50;99.90;;;;;;5006754;28;20034;-72
2022/11/02 01:28:15;;;;;;;11.60;2.60;;;8.50;99.90;;;;;;5015915;28;20171;-72
2022/11/02 01:30:41;;;;;;;11.80;2.42;;;8.50;99.90;;;;;;5016347;28;20464;-72
2022/11/02 01:33:07;;;;;;;7.35;2.40;;;8.50;99.90;;;;;;5020241;28;20029;-72
2022/11/02 01:35:35;;;;;;;11.48;2.53;;;8.50;99.90;;;;;;5018630;28;20017;-72
2022/11/02 01:38:00;;;;;;;20.10;2.72;;;8.40;99.90;;;;;;5021028;28;20018;-71
2022/11/02 01:40:26;;;;;;;10.88;1.90;;;8.50;99.90;;;;;;5021734;28;20090;-71
2022/11/02 01:42:52;;;;;;;7.45;1.98;;;8.50;99.90;;;;;;5017936;28;20082;-71
2022/11/02 01:45:17;;;;;;;7.15;2.10;;;8.50;99.90;;;;;;5009561;28;20088;-71
2022/11/02 01:47:47;;;;;;;11.85;2.55;;;8.50;99.90;;;;;;5016272;28;20236;-71
2022/11/02 01:50:26;;;;;;;11.48;2.30;;;8.50;99.90;;;;;;5023088;28;20563;-71
2022/11/02 01:52:52;;;;;;;10.73;2.20;;;8.50;99.90;;;;;;5025271;28;20450;-71
2022/11/02 01:55:23;;;;;;;14.38;2.55;;;8.50;99.90;;;;;;5012104;28;20065;-71
2022/11/02 01:57:56;;;;;;;9.95;2.45;;;8.60;99.90;;;;;;5021291;28;20244;-72
2022/11/02 02:00:22;;;;;;;14.45;2.28;;;8.60;99.90;;;;;;5027024;28;20064;-71
2022/11/02 02:02:56;;;;;;;10.98;2.22;;;8.60;99.90;;;;;;5016726;28;20622;-71
2022/11/02 02:05:23;;;;;;;13.68;2.22;;;8.60;99.90;;;;;;5020340;28;20420;-71
2022/11/02 02:07:50;;;;;;;10.18;2.28;;;8.60;99.90;;;;;;5018805;28;20021;-71
2022/11/02 02:10:16;;;;;;;14.05;2.50;;;8.60;99.90;;;;;;5013976;28;20075;-71
2022/11/02 02:12:43;;;;;;;12.48;2.00;;;8.70;99.90;;;;;;5020888;28;20060;-71
2022/11/02 02:15:10;;;;;;;14.23;2.35;;;8.70;99.90;;;;;;5015200;28;20502;-72
2022/11/02 02:17:51;;;;;;;16.20;2.28;;;8.80;99.90;;;;;;5019023;28;20328;-71
2022/11/02 02:20:23;;;;;;;12.90;2.25;;;8.80;99.90;;;;;;5019406;28;20523;-71
2022/11/02 02:22:51;;;;;;;8.00;2.30;;;8.80;99.90;;;;;;5016296;28;20037;-72
2022/11/02 02:25:44;;;;;;;13.73;2.42;;;8.80;99.90;;;;;;5017199;28;20159;-72
2022/11/02 02:28:24;;;;;;;14.63;2.63;;;8.80;99.90;;;;;;5022284;28;20041;-71
2022/11/02 02:30:57;;;;;;;14.68;2.38;;;8.80;99.90;;;;;;5029363;28;20037;-71
2022/11/02 02:33:33;;;;;;;11.63;2.10;;;8.80;99.90;;;;;;5019685;28;20021;-72
2022/11/02 02:36:14;;;;;;;10.82;2.45;;;8.80;99.90;;;;;;5017317;28;22804;-72
2022/11/02 02:38:45;;;;;;;12.00;2.42;;;8.80;99.90;;;;;;5019753;28;20124;-71
2022/11/02 02:41:24;;;;;;;13.10;2.53;;;8.80;99.90;;;;;;5017643;28;20041;-71
2022/11/02 02:43:53;;;;;;;17.30;2.33;;;8.70;99.90;;;;;;5014681;28;20076;-72
2022/11/02 02:46:50;;;;;;;11.00;2.03;;;8.80;99.90;;;;;;5017705;28;20021;-72
2022/11/02 02:49:22;;;;;;;13.48;2.25;;;8.80;99.90;;;;;;5017774;28;20036;-72
2022/11/02 02:51:48;;;;;;;12.05;2.15;;;8.80;99.90;;;;;;5021480;28;20033;-72
2022/11/02 02:54:20;;;;;;;11.38;2.63;;;8.80;99.90;;;;;;5016060;28;20029;-71
2022/11/02 02:56:52;;;;;;;15.52;3.75;;;8.80;99.90;;;;;;5021266;28;20067;-72
2022/11/02 02:59:26;;;;;;;12.73;2.45;;;8.80;99.90;;;;;;5017195;28;20026;-72
2022/11/02 03:01:54;;;;;;;20.27;2.92;;;8.90;99.90;;;;;;5027516;28;20437;-71
2022/11/02 03:04:20;;;;;;;14.80;2.45;;;8.80;99.90;;;;;;5021837;28;20036;-71
2022/11/02 03:06:51;;;;;;;11.15;2.55;;;8.90;99.90;;;;;;5015521;28;20030;-71
2022/11/02 03:09:52;;;;;;;8.35;1.90;;;8.90;99.90;;;;;;5010455;28;20384;-71
2022/11/02 03:12:35;;;;;;;8.90;1.75;;;9.00;99.90;;;;;;5009373;28;20260;-71
2022/11/02 03:15:09;;;;;;;16.85;2.42;;;9.10;99.90;;;;;;5012016;28;20036;-71
2022/11/02 03:17:54;;;;;;;13.80;2.30;;;9.10;99.90;;;;;;5016873;28;20489;-71
2022/11/02 03:20:41;;;;;;;10.07;1.58;;;9.10;99.90;;;;;;5016909;28;20622;-71
2022/11/02 03:23:39;;;;;;;11.93;2.13;;;9.20;99.90;;;;;;5009768;28;20216;-71
2022/11/02 03:26:08;;;;;;;9.93;2.13;;;9.30;99.90;;;;;;5014381;28;20382;-72
2022/11/02 03:28:45;;;;;;;10.50;1.75;;;9.30;99.90;;;;;;5013271;28;20124;-71
2022/11/02 03:31:53;;;;;;;9.35;1.75;;;9.40;99.90;;;;;;5022128;28;20033;-72
2022/11/02 03:34:26;;;;;;;11.75;1.90;;;9.50;99.90;;;;;;5015968;28;20032;-72
2022/11/02 03:37:19;;;;;;;15.90;2.75;;;9.60;99.90;;;;;;5011626;28;20229;-71
2022/11/02 03:39:51;;;;;;;11.45;2.47;;;9.60;99.90;;;;;;5014020;28;20029;-71
2022/11/02 03:42:21;;;;;;;11.48;2.72;;;9.70;99.90;;;;;;5019231;28;20112;-72
2022/11/02 03:44:52;;;;;;;9.55;2.30;;;9.70;99.90;;;;;;5014780;28;20124;-72
2022/11/02 03:47:19;;;;;;;12.35;2.20;;;9.70;99.90;;;;;;5022548;28;20062;-72
2022/11/02 03:49:49;;;;;;;12.05;2.45;;;9.80;99.90;;;;;;5017118;28;20053;-72
2022/11/02 03:52:20;;;;;;;18.20;3.20;;;9.80;99.90;;;;;;5009670;28;20036;-71
2022/11/02 03:54:52;;;;;;;11.57;2.22;;;9.90;99.90;;;;;;5020192;28;20036;-71
2022/11/02 03:57:23;;;;;;;13.27;2.00;;;9.90;99.90;;;;;;5012982;28;20029;-72
2022/11/02 03:59:48;;;;;;;12.20;2.28;;;9.90;99.90;;;;;;5018183;28;20486;-72
2022/11/02 04:02:16;;;;;;;12.60;2.47;;;9.90;99.90;;;;;;5016127;28;20025;-72
2022/11/02 04:04:52;;;;;;;13.45;2.50;;;9.90;99.90;;;;;;5009641;28;20030;-72
2022/11/02 04:07:26;;;;;;;11.73;2.00;;;9.90;99.90;;;;;;5009572;28;20057;-71
2022/11/02 04:09:52;;;;;;;8.02;1.77;;;9.80;99.90;;;;;;5010971;28;20029;-72
2022/11/02 04:15:02;;;;;;;10.18;2.10;;;9.90;99.90;;;;;;5010599;28;20078;-71
2022/11/02 04:20:12;;;;;;;15.38;2.35;;;9.90;99.90;;;;;;5010168;28;20448;-71
2022/11/02 04:25:22;;;;;;;14.13;2.53;;;10.00;99.90;;;;;;5012281;28;20117;-71
2022/11/02 04:27:50;;;;;;;13.77;2.40;;;10.00;99.90;;;;;;5019965;28;20168;-71
2022/11/02 04:30:19;;;;;;;9.20;2.10;;;10.00;99.90;;;;;;5021375;28;20049;-71
2022/11/02 04:35:32;;;;;;;14.18;2.45;;;10.00;99.90;;;;;;5014598;28;20037;-71
2022/11/02 04:40:43;;;;;;;14.80;2.45;;;10.00;99.90;;;;;;5012749;28;20037;-71
2022/11/02 04:43:09;;;;;;;16.50;2.92;;;10.00;99.90;;;;;;5016865;28;20033;-71
2022/11/02 04:45:35;;;;;;;13.73;2.25;;;10.00;99.90;;;;;;5013915;28;20036;-71
2022/11/02 04:48:03;;;;;;;14.13;2.55;;;9.90;99.90;;;;;;5015090;28;20040;-71
2022/11/02 04:50:29;;;;;;;9.00;2.13;;;9.90;99.90;;;;;;5015148;28;20029;-71
2022/11/02 04:53:00;;;;;;;8.35;2.25;;;9.90;99.90;;;;;;5012258;28;20117;-71
2022/11/02 04:55:26;;;;;;;11.10;2.00;;;9.80;99.90;;;;;;5011215;28;20021;-71
2022/11/02 04:57:51;;;;;;;12.63;2.42;;;9.80;99.90;;;;;;5014526;28;20025;-71
2022/11/02 05:00:18;;;;;;;14.27;2.42;;;9.80;99.90;;;;;;5019257;28;20041;-72
2022/11/02 05:02:46;;;;;;;12.15;2.42;;;9.70;99.90;;;;;;5005549;28;20040;-71
2022/11/02 05:05:12;;;;;;;16.80;2.42;;;9.60;99.90;;;;;;5022360;28;20065;-72
2022/11/02 05:07:38;;;;;;;14.70;2.55;;;9.60;99.90;;;;;;5002004;28;20348;-72
2022/11/02 05:10:04;;;;;;;10.93;2.40;;;9.60;99.90;;;;;;5010997;28;20034;-71
2022/11/02 05:12:30;;;;;;;10.20;2.05;;;9.50;99.90;;;;;;5015466;28;20022;-72
2022/11/02 05:14:56;;;;;;;7.55;2.13;;;9.40;99.90;;;;;;5011822;28;20045;-71
2022/11/02 05:17:21;;;;;;;10.93;2.28;;;9.40;99.90;;;;;;5014586;28;20417;-71
2022/11/02 05:19:47;;;;;;;12.15;2.50;;;9.40;99.90;;;;;;5015479;28;20159;-71
2022/11/02 05:22:12;;;;;;;9.65;2.30;;;9.30;99.90;;;;;;5014579;28;20041;-71
2022/11/02 05:24:39;;;;;;;17.42;2.92;;;9.30;99.90;;;;;;5022945;28;20041;-71
2022/11/02 05:27:05;;;;;;;16.30;3.00;;;9.30;99.90;;;;;;5026577;28;20167;-71
2022/11/02 05:29:30;;;;;;;18.83;2.78;;;9.30;99.90;;;;;;5015675;28;20509;-71
2022/11/02 05:31:57;;;;;;;12.98;2.70;;;9.30;99.90;;;;;;5019763;28;20118;-71
2022/11/02 05:34:22;;;;;;;14.98;2.70;;;9.30;99.90;;;;;;5018509;28;20049;-71
2022/11/02 05:36:48;;;;;;;11.25;2.53;;;9.30;99.90;;;;;;5018201;28;20025;-71
2022/11/02 05:39:14;;;;;;;9.75;2.30;;;9.30;99.90;;;;;;5012022;28;20030;-71
2022/11/02 05:41:40;;;;;;;12.18;2.65;;;9.20;99.90;;;;;;5009407;28;20029;-71
2022/11/02 05:44:06;;;;;;;14.13;3.00;;;9.20;99.90;;;;;;5024043;28;20021;-72
2022/11/02 05:46:32;;;;;;;12.10;2.58;;;9.10;99.90;;;;;;5024776;28;20095;-71
2022/11/02 05:48:57;;;;;;;14.57;2.55;;;9.10;99.90;;;;;;5024983;28;20041;-71
2022/11/02 05:51:23;;;;;;;16.02;3.13;;;9.10;99.90;;;;;;5019193;28;20506;-71
2022/11/02 05:53:49;;;;;;;15.20;2.53;;;9.10;99.90;;;;;;5014751;28;20037;-71
2022/11/02 05:56:14;;;;;;;8.60;2.60;;;9.10;99.90;;;;;;5008670;28;20100;-72
2022/11/02 05:58:40;;;;;;;16.73;2.72;;;9.20;99.90;;;;;;5021646;28;20026;-71
2022/11/02 06:01:07;;;;;;;15.88;3.30;;;9.20;99.90;;;;;;5032920;28;20043;-71
2022/11/02 06:03:33;;;;;;;10.27;2.67;;;9.20;99.90;;;;;;5020177;28;20362;-71
2022/11/02 06:06:01;;;;;;;14.55;2.63;;;9.20;99.90;;;;;;5026210;28;20493;-72
2022/11/02 06:08:30;;;;;;;13.43;2.78;;;9.20;99.90;;;;;;5025552;28;20412;-71
2022/11/02 06:10:55;;;;;;;14.35;3.03;;;9.30;99.90;;;;;;5023001;28;20029;-72
2022/11/02 06:13:21;;;;;;;8.15;2.70;;;9.30;99.90;;;;;;5010154;28;20419;-72
2022/11/02 06:15:46;;;;;;;14.55;3.25;;;9.30;99.90;;;;;;5015887;28;20403;-71
2022/11/02 06:18:12;;;;;;;11.32;2.47;;;9.40;99.90;;;;;;5032466;28;20113;-71
2022/11/02 06:20:38;;;;;;;15.63;2.90;;;9.40;99.90;;;;;;5024458;28;20029;-71
2022/11/02 06:23:03;;;;;;;14.40;3.33;;;9.40;99.90;;;;;;5024585;28;20040;-71
2022/11/02 06:25:29;;;;;;;8.60;2.67;;;9.40;99.90;;;;;;5021188;28;20026;-72
2022/11/02 06:27:55;;;;;;;12.80;3.00;;;9.40;99.90;;;;;;5032087;28;20123;-72
2022/11/02 06:30:23;;;;;;;16.27;2.60;;;9.40;99.90;;;;;;5013801;28;20149;-72
2022/11/02 06:32:50;;;;;;;15.18;2.75;;;9.50;99.90;;;;;;5013855;28;20025;-72
2022/11/02 06:35:17;;;;;;;19.67;3.30;;;9.50;99.90;;;;;;5018388;28;20262;-72
2022/11/02 06:37:43;;;;;;;15.35;2.50;;;9.50;99.90;;;;;;5024129;28;20116;-71
2022/11/02 06:40:10;;;;;;;10.80;2.90;;;9.60;99.90;;;;;;5017747;28;20030;-71
2022/11/02 06:42:36;;;;;;;21.63;3.22;;;9.60;99.90;;;;;;5021079;28;20038;-71
2022/11/02 06:45:02;;;;;;;14.52;3.15;;;9.60;99.90;;;;;;5006371;28;20048;-71
2022/11/02 06:47:30;;;;;;;14.02;3.70;;;9.60;99.90;;;;;;5013586;28;20112;-72
2022/11/02 06:49:56;;;;;;;6.97;2.28;;;9.60;99.90;;;;;;5024116;28;20578;-71
2022/11/02 06:52:22;;;;;;;15.80;3.00;;;9.60;99.90;;;;;;5021675;28;20061;-71
2022/11/02 06:54:47;;;;;;;15.30;2.88;;;9.60;99.90;;;;;;5013513;28;20026;-71
2022/11/02 06:57:13;;;;;;;14.48;2.53;;;9.60;99.90;;;;;;5021672;28;20754;-71
2022/11/02 06:59:39;;;;;;;16.77;3.42;;;9.60;99.90;;;;;;5020675;28;20068;-71
2022/11/02 07:02:04;;;;;;;18.80;3.33;;;9.60;99.90;;;;;;5013667;28;20440;-71
2022/11/02 07:04:30;;;;;;;13.45;2.60;;;9.60;99.90;;;;;;5012922;28;20033;-71
2022/11/02 07:06:56;;;;;;;17.75;3.00;;;9.60;99.90;;;;;;5015833;28;20049;-71
2022/11/02 07:09:21;;;;;;;17.98;3.15;;;9.60;99.90;;;;;;5025816;28;20029;-71
2022/11/02 07:11:47;;;;;;;15.73;4.78;;;9.60;99.90;;;;;;5020637;28;20030;-71
2022/11/02 07:14:13;;;;;;;14.57;4.93;;;9.60;99.90;;;;;;5014428;28;20501;-71
2022/11/02 07:16:39;;;;;;;14.05;4.10;;;9.70;99.90;;;;;;5022678;28;20048;-71
2022/11/02 07:19:04;;;;;;;14.77;3.92;;;9.70;99.90;;;;;;5020698;28;20444;-72
2022/11/02 07:21:30;;;;;;;16.30;3.80;;;9.80;99.90;;;;;;5012851;28;20423;-71
2022/11/02 07:23:56;;;;;;;14.38;3.33;;;9.80;99.90;;;;;;5010833;28;20392;-72
2022/11/02 07:26:22;;;;;;;13.20;3.50;;;9.80;99.90;;;;;;5017608;28;20026;-72
2022/11/02 07:28:48;;;;;;;16.70;4.22;;;9.90;99.90;;;;;;5017341;28;20042;-72
2022/11/02 07:31:14;;;;;;;12.00;3.42;;;9.90;99.90;;;;;;5023923;28;20040;-72
2022/11/02 07:33:39;;;;;;;11.07;3.40;;;9.90;99.90;;;;;;5015009;28;20041;-72
2022/11/02 07:36:06;;;;;;;17.17;4.78;;;9.90;99.90;;;;;;5021103;28;20472;-72
2022/11/02 07:38:31;;;;;;;12.25;3.80;;;10.00;99.90;;;;;;5024860;28;20488;-72
2022/11/02 07:40:57;;;;;;;16.45;3.60;;;10.00;99.90;;;;;;5025563;28;20057;-71
2022/11/02 07:43:23;;;;;;;13.63;3.33;;;10.00;99.90;;;;;;5017823;28;20481;-72
2022/11/02 07:45:48;;;;;;;14.38;3.05;;;10.10;99.90;;;;;;5011883;28;20021;-72
2022/11/02 07:48:14;;;;;;;10.40;2.90;;;10.10;99.90;;;;;;5014807;28;20025;-72
2022/11/02 07:50:40;;;;;;;13.93;3.08;;;10.20;99.90;;;;;;5017917;28;20029;-71
2022/11/02 07:53:06;;;;;;;20.02;3.67;;;10.20;99.90;;;;;;5022230;28;20029;-71
2022/11/02 07:55:32;;;;;;;8.93;2.65;;;10.30;99.90;;;;;;5017084;28;20033;-72
2022/11/02 07:58:02;;;;;;;14.82;3.08;;;10.30;99.90;;;;;;5018050;28;20047;-72
2022/11/02 08:00:31;;;;;;;16.20;3.25;;;10.50;99.90;;;;;;5022300;28;20028;-71
2022/11/02 08:02:59;;;;;;;10.02;2.97;;;10.70;99.90;;;;;;5022053;28;20041;-71
2022/11/02 08:05:27;;;;;;;16.10;3.17;;;10.80;99.90;;;;;;5022216;28;20461;-72
2022/11/02 08:08:00;;;;;;;16.60;3.30;;;11.00;99.90;;;;;;5018162;28;20096;-72
2022/11/02 08:10:27;;;;;;;13.05;2.75;;;11.10;99.90;;;;;;5016309;28;20041;-72
2022/11/02 08:12:53;;;;;;;19.80;3.15;;;11.10;99.90;;;;;;5011144;28;20495;-72
2022/11/02 08:15:19;;;;;;;12.27;3.10;;;11.10;99.90;;;;;;5019211;28;20041;-72
2022/11/02 08:17:45;;;;;;;13.43;3.47;;;11.10;99.90;;;;;;5015797;28;21715;-72
2022/11/02 08:20:10;;;;;;;14.98;3.08;;;11.10;99.90;;;;;;5015364;28;20036;-71
2022/11/02 08:22:37;;;;;;;12.52;2.65;;;11.10;99.90;;;;;;5014386;28;20035;-72
2022/11/02 08:25:04;;;;;;;13.43;3.38;;;11.10;99.90;;;;;;5028200;28;20044;-72
2022/11/02 08:27:30;;;;;;;14.65;2.67;;;11.30;99.90;;;;;;5020113;28;20029;-72
2022/11/02 08:29:55;;;;;;;10.98;3.33;;;11.40;99.90;;;;;;5023213;28;20042;-72
2022/11/02 08:32:26;;;;;;;12.35;3.10;;;11.60;99.90;;;;;;4838243;28;10000643;-72
2022/11/02 08:34:51;;;;;;;14.02;3.17;;;11.70;99.90;;;;;;5012714;28;20234;-72
2022/11/02 08:37:17;;;;;;;13.43;4.07;;;11.90;99.90;;;;;;4997080;28;20541;-72
2022/11/02 08:39:43;;;;;;;13.35;3.85;;;12.00;99.90;;;;;;5017891;28;20026;-72
2022/11/02 08:42:08;;;;;;;12.80;3.05;;;12.00;99.90;;;;;;5008996;28;20060;-72
2022/11/02 08:44:35;;;;;;;14.27;2.63;;;12.00;99.90;;;;;;5023269;28;20393;-72
2022/11/02 08:47:00;;;;;;;13.07;2.97;;;12.00;99.90;;;;;;5018498;28;20025;-72
2022/11/02 08:49:26;;;;;;;12.98;3.20;;;11.90;99.90;;;;;;5016952;28;20014;-71
2022/11/02 08:51:51;;;;;;;15.80;3.13;;;11.90;99.90;;;;;;5024145;28;20040;-72
2022/11/02 08:54:17;;;;;;;13.57;2.42;;;11.90;99.90;;;;;;5022326;28;20029;-72
2022/11/02 08:56:43;;;;;;;14.05;2.88;;;11.90;99.90;;;;;;5020514;28;20026;-72
2022/11/02 08:59:09;;;;;;;10.98;3.70;;;12.00;99.90;;;;;;5015999;28;20461;-72
2022/11/02 09:01:34;;;;;;;14.63;3.00;;;12.00;99.90;;;;;;5017244;28;20393;-72
2022/11/02 09:04:00;;;;;;;13.07;3.10;;;12.10;99.90;;;;;;5004691;28;20029;-73
2022/11/02 09:06:26;;;;;;;15.15;5.53;;;12.20;99.90;;;;;;5016142;28;20021;-72
2022/11/02 09:08:51;;;;;;;12.57;2.67;;;12.30;99.90;;;;;;5011262;28;20037;-71
2022/11/02 09:11:17;;;;;;;14.10;5.03;;;12.50;99.90;;;;;;5017049;28;20087;-71
2022/11/02 09:13:42;;;;;;;11.77;4.28;;;12.70;99.90;;;;;;5020465;28;20546;-71
2022/11/02 09:16:08;;;;;;;13.80;3.38;;;12.80;99.90;;;;;;5027854;28;20013;-71
2022/11/02 09:18:34;;;;;;;15.27;2.92;;;12.90;99.90;;;;;;5031877;28;20047;-72
2022/11/02 09:21:04;;;;;;;14.23;4.28;;;13.00;99.90;;;;;;5020795;28;20029;-71
2022/11/02 09:23:30;;;;;;;13.50;4.13;;;12.90;99.90;;;;;;5014875;28;20476;-72
2022/11/02 09:25:57;;;;;;;15.38;3.65;;;12.80;99.90;;;;;;5017502;28;20030;-72
2022/11/02 09:28:22;;;;;;;12.60;3.63;;;12.70;99.90;;;;;;5016272;28;20025;-72
2022/11/02 09:30:48;;;;;;;13.50;3.05;;;12.60;99.90;;;;;;5017864;28;20060;-72
2022/11/02 09:33:15;;;;;;;8.80;2.13;;;12.50;99.90;;;;;;5014442;28;20041;-72
2022/11/02 09:35:47;;;;;;;10.40;2.35;;;12.60;99.90;;;;;;5019135;28;20631;-73
2022/11/02 09:38:14;;;;;;;10.65;2.38;;;12.60;99.90;;;;;;5013972;28;20456;-72
2022/11/02 09:40:50;;;;;;;8.52;2.88;;;12.60;99.90;;;;;;5016500;28;20195;-72
2022/11/02 09:43:52;;;;;;;10.55;2.60;;;12.70;99.90;;;;;;5025685;28;20120;-72
2022/11/02 09:46:24;;;;;;;9.57;2.25;;;12.70;99.90;;;;;;5020194;28;20032;-72
2022/11/02 09:49:19;;;;;;;11.02;2.53;;;12.70;99.90;;;;;;5014033;28;20516;-72
2022/11/02 09:51:49;;;;;;;13.52;2.90;;;12.90;99.90;;;;;;5013828;28;20033;-72
2022/11/02 09:54:29;;;;;;;11.05;2.78;;;13.10;99.90;;;;;;5010999;28;20037;-72
2022/11/02 09:57:07;;;;;;;13.40;3.13;;;13.10;99.90;;;;;;5006357;28;20437;-73
2022/11/02 09:59:33;;;;;;;19.63;3.40;;;13.10;99.90;;;;;;5018481;28;20049;-72
2022/11/02 10:01:59;;;;;;;14.63;2.63;;;13.20;99.90;;;;;;5011755;28;21258;-72
2022/11/02 10:04:44;;;;;;;13.25;2.45;;;13.30;99.90;;;;;;5014252;28;20349;-72
2022/11/02 10:07:32;;;;;;;17.25;3.50;;;13.40;99.90;;;;;;5015070;28;20131;-72
2022/11/02 10:10:21;;;;;;;11.13;4.20;;;13.60;99.90;;;;;;5011124;28;20443;-72
2022/11/02 10:13:24;;;;;;;14.25;4.38;;;13.70;99.90;;;;;;5021625;28;20368;-76
2022/11/02 10:15:59;;;;;;;11.68;3.47;;;13.80;99.90;;;;;;5005660;28;20492;-76
2022/11/02 10:18:28;;;;;;;15.05;5.60;;;13.90;99.90;;;;;;5018416;28;20041;-76
2022/11/02 10:21:00;;;;;;;11.93;2.35;;;13.90;99.90;;;;;;5026986;28;20467;-75
2022/11/02 10:23:33;;;;;;;18.48;5.15;;;14.00;99.90;;;;;;5033460;28;20029;-75
2022/11/02 10:26:01;;;;;;;12.73;3.53;;;14.00;99.90;;;;;;5030580;28;20450;-75
2022/11/02 10:28:32;;;;;;;17.35;7.13;;;14.10;99.90;;;;;;5023607;28;20031;-75
2022/11/02 10:31:00;;;;;;;17.73;5.82;;;14.20;99.90;;;;;;5018564;28;20042;-76
2022/11/02 10:33:28;;;;;;;7.55;2.03;;;14.20;99.90;;;;;;5024544;28;20543;-75
2022/11/02 10:36:22;;;;;;;16.90;5.45;;;14.10;99.90;;;;;;5016224;28;20401;-76
2022/11/02 10:39:18;;;;;;;12.13;2.80;;;14.00;99.90;;;;;;5034312;28;20164;-76
2022/11/02 10:41:51;;;;;;;10.75;2.35;;;14.00;99.90;;;;;;5037988;28;20037;-76
2022/11/02 10:44:50;;;;;;;11.63;2.88;;;13.90;99.90;;;;;;5024861;28;20041;-76
2022/11/02 10:47:50;;;;;;;9.82;2.38;;;13.70;99.90;;;;;;5038842;28;20124;-76
2022/11/02 10:50:51;;;;;;;10.45;2.60;;;13.70;99.90;;;;;;5024310;28;20044;-76
2022/11/02 10:53:19;;;;;;;7.18;1.60;;;13.80;99.90;;;;;;5032071;28;20280;-76
2022/11/02 10:56:14;;;;;;;10.73;1.90;;;13.90;99.90;;;;;;5032239;28;20502;-76
2022/11/02 10:58:45;;;;;;;10.55;1.58;;;13.90;99.90;;;;;;5045866;28;20540;-76
2022/11/02 11:01:12;;;;;;;7.03;1.67;;;13.90;99.90;;;;;;5029382;28;20127;-76
2022/11/02 11:04:04;;;;;;;5.40;1.58;;;13.70;99.90;;;;;;5030084;28;20029;-76
2022/11/02 11:06:35;;;;;;;9.52;1.58;;;13.70;99.90;;;;;;5034660;28;20037;-76
2022/11/02 11:09:06;;;;;;;7.97;1.63;;;13.70;99.90;;;;;;5034744;28;20035;-75
2022/11/02 11:11:36;;;;;;;6.90;1.33;;;13.60;99.90;;;;;;5017424;28;20033;-75
2022/11/02 11:14:05;;;;;;;4.60;1.70;;;13.50;99.90;;;;;;4362923;28;10000736;-75
2022/11/02 11:16:37;;;;;;;8.38;1.50;;;13.30;99.90;;;;;;5058393;28;20043;-76
2022/11/02 11:19:21;;;;;;;10.05;2.30;;;13.20;99.90;;;;;;5061136;28;20120;-75
2022/11/02 11:21:50;;;;;;;8.65;1.40;;;13.10;99.90;;;;;;5077540;28;20035;-76
2022/11/02 11:24:24;;;;;;;5.88;1.30;;;13.00;99.90;;;;;;5064993;28;20484;-76
2022/11/02 11:27:03;;;;;;;8.30;1.67;;;13.00;99.90;;;;;;5066925;28;20502;-76
2022/11/02 11:29:36;;;;;;;7.40;1.40;;;12.90;99.90;;;;;;5061433;28;20044;-76
2022/11/02 11:32:02;;;;;;;;;;;12.90;99.90;;;;;;5069933;28;20220;-76
2022/11/02 11:34:31;;;;;;;7.28;1.33;;;12.80;99.90;;;;;;5060722;28;19915;-75
2022/11/02 11:37:06;;;;;;;9.55;1.17;;;13.00;99.90;;;;;;5057971;28;20388;-76
2022/11/02 11:39:33;;;;;;;7.07;1.50;;;13.10;99.90;;;;;;5060019;28;20037;-76
2022/11/02 11:42:01;;;;;;;11.82;2.47;;;13.10;99.90;;;;;;5063137;28;20064;-76
2022/11/02 11:44:27;;;;;;;10.73;2.10;;;13.00;99.90;;;;;;5062947;28;20483;-75
2022/11/02 11:46:56;;;;;;;8.52;1.65;;;13.00;99.90;;;;;;5021569;28;20029;-75
2022/11/02 11:49:25;;;;;;;5.43;1.20;;;12.90;99.90;;;;;;5020953;28;20108;-75
2022/11/02 11:51:54;;;;;;;8.60;1.73;;;12.90;99.90;;;;;;5023708;28;20463;-75
2022/11/02 11:54:25;;;;;;;7.47;1.48;;;12.80;99.90;;;;;;5027676;28;20473;-76
2022/11/02 11:56:56;;;;;;;5.68;1.05;;;12.80;99.90;;;;;;5016894;28;20036;-75
2022/11/02 11:59:41;;;;;;;4.57;1.45;;;12.90;99.90;;;;;;5018961;28;20428;-76
2022/11/02 12:02:25;;;;;;;11.32;1.33;;;13.00;99.90;;;;;;5032861;28;20025;-76
2022/11/02 12:04:56;;;;;;;5.68;1.05;;;13.00;99.90;;;;;;5022729;28;20337;-75
2022/11/02 12:08:01;;;;;;;4.95;0.85;;;13.00;99.90;;;;;;5016635;28;20060;-76
2022/11/02 12:10:39;;;;;;;4.25;1.10;;;13.00;99.90;;;;;;5023434;28;20309;-75
2022/11/02 12:13:38;;;;;;;4.85;1.02;;;13.10;99.90;;;;;;5015774;28;20728;-75
2022/11/02 12:16:04;;;;;;;5.85;1.10;;;13.20;99.90;;;;;;5017072;28;20033;-75
2022/11/02 12:19:01;;;;;;;3.75;1.00;;;13.30;99.90;;;;;;5027716;28;20025;-75
2022/11/02 12:21:36;;;;;;;5.45;1.10;;;13.40;99.90;;;;;;5009521;28;20041;-75
2022/11/02 12:24:14;;;;;;;6.82;1.05;;;13.50;99.90;;;;;;5010845;28;20040;-75
2022/11/02 12:26:59;;;;;;;8.32;1.30;;;13.70;99.90;;;;;;5019344;28;20067;-75
2022/11/02 12:29:54;;;;;;;6.88;0.90;;;13.90;99.90;;;;;;5019415;28;20128;-75
2022/11/02 12:32:30;;;;;;;8.77;1.20;;;13.90;99.90;;;;;;5012471;28;20061;-75
2022/11/02 12:35:19;;;;;;;11.05;1.20;;;13.90;99.90;;;;;;5019742;28;20036;-75
2022/11/02 12:38:00;;;;;;;5.75;0.80;;;14.10;99.90;;;;;;5017904;28;20029;-75
2022/11/02 12:40:57;;;;;;;5.22;1.05;;;14.40;99.90;;;;;;5022798;28;20273;-75
2022/11/02 12:43:37;;;;;;;7.55;1.15;;;14.60;99.90;;;;;;5020378;28;20017;-75
2022/11/02 12:46:25;;;;;;;7.57;0.90;;;14.80;99.90;;;;;;5027804;28;20207;-75
2022/11/02 12:49:24;;;;;;;8.70;1.38;;;15.00;99.90;;;;;;5014886;28;20300;-75
2022/11/02 12:52:09;;;;;;;6.72;1.00;;;15.10;99.90;;;;;;5020963;28;20025;-75
2022/11/02 12:54:50;;;;;;;4.47;0.90;;;15.20;99.90;;;;;;5011723;28;20115;-77
2022/11/02 12:57:21;;;;;;;5.70;1.00;;;15.20;99.90;;;;;;5012046;28;20032;-74
2022/11/02 12:59:53;;;;;;;5.65;1.10;;;15.10;99.90;;;;;;5019199;28;20425;-75
2022/11/02 13:02:26;;;;;;;6.65;1.02;;;15.00;99.90;;;;;;5012793;28;20485;-74
2022/11/02 13:05:08;;;;;;;5.18;1.13;;;15.10;99.90;;;;;;5011834;28;20136;-75
2022/11/02 13:07:41;;;;;;;7.55;0.95;;;15.20;99.90;;;;;;5010165;28;20025;-75
2022/11/02 13:10:14;;;;;;;8.73;1.45;;;15.10;99.90;;;;;;5031371;28;20229;-74
2022/11/02 13:12:42;;;;;;;6.13;1.27;;;15.00;99.90;;;;;;5019674;28;20027;-74
2022/11/02 13:15:15;;;;;;;4.07;0.95;;;15.00;99.90;;;;;;5025749;28;20056;-74
2022/11/02 13:17:45;;;;;;;6.32;1.20;;;15.10;99.90;;;;;;5018850;28;20474;-75